createdAt,value
2023-03-06T00:01:01.066Z,3.60
2023-03-06T00:06:02.906Z,3.46
2023-03-06T00:11:04.805Z,3.64
2023-03-06T00:16:07.143Z,3.61
2023-03-06T00:21:09.227Z,2.85
2023-03-06T00:26:10.972Z,3.23
2023-03-06T00:31:14.912Z,3.12
2023-03-06T00:36:16.693Z,3.25
2023-03-06T00:41:19.072Z,3.52
2023-03-06T00:46:20.894Z,3.26
2023-03-06T00:51:22.933Z,3.45
2023-03-06T00:56:25.215Z,3.13
2023-03-06T01:01:27.037Z,3.36
2023-03-06T01:06:29.288Z,3.46
2023-03-06T01:11:31.164Z,3.21
2023-03-06T01:16:33.110Z,3.08
2023-03-06T01:21:34.801Z,3.10
2023-03-06T01:26:36.632Z,3.01
2023-03-06T01:31:38.549Z,2.66
2023-03-06T01:36:40.423Z,2.36
2023-03-06T01:41:42.243Z,1.65
2023-03-06T01:46:45.168Z,2.68
2023-03-06T01:51:54.484Z,1.51
2023-03-06T01:57:01.990Z,2.14
2023-03-06T02:02:08.591Z,2.36
2023-03-06T02:07:11.023Z,1.04
2023-03-06T02:12:16.993Z,2.35
2023-03-06T02:17:21.082Z,2.68
2023-03-06T02:22:29.891Z,1.77
2023-03-06T02:27:32.446Z,1.84
2023-03-06T02:32:34.394Z,1.46
2023-03-06T02:37:36.479Z,1.40
2023-03-06T02:42:46.181Z,1.80
2023-03-06T02:47:49.468Z,2.21
2023-03-06T02:52:51.182Z,2.43
2023-03-06T02:57:52.992Z,2.58
2023-03-06T03:02:56.081Z,2.85
2023-03-06T03:07:58.087Z,2.23
2023-03-06T03:12:59.871Z,2.72
2023-03-06T03:18:01.900Z,2.47
2023-03-06T03:23:03.700Z,2.71
2023-03-06T03:28:05.439Z,2.57
2023-03-06T03:33:07.390Z,2.67
2023-03-06T03:38:09.881Z,2.68
2023-03-06T03:43:12.354Z,1.93
2023-03-06T03:48:14.985Z,2.15
2023-03-06T03:53:16.996Z,2.40
2023-03-06T03:58:19.175Z,1.57
2023-03-06T04:03:21.583Z,0.63
2023-03-06T04:08:24.670Z,1.83
2023-03-06T04:13:27.041Z,0.96
2023-03-06T04:18:28.973Z,1.93
2023-03-06T04:23:34.884Z,2.29
2023-03-06T04:28:38.979Z,2.41
2023-03-06T04:33:41.112Z,1.79
2023-03-06T04:38:43.958Z,1.84
2023-03-06T04:43:46.279Z,1.83
2023-03-06T04:48:48.109Z,2.26
2023-03-06T04:53:50.201Z,2.50
2023-03-06T04:58:52.066Z,1.98
2023-03-06T05:03:53.878Z,2.50
2023-03-06T05:08:55.678Z,2.29
2023-03-06T05:13:57.477Z,2.32
2023-03-06T05:18:59.369Z,2.24
2023-03-06T05:24:01.300Z,1.36
2023-03-06T05:29:03.133Z,0.70
2023-03-06T05:34:05.017Z,0.99
2023-03-06T05:39:06.985Z,0.36
2023-03-06T05:44:08.903Z,1.83
2023-03-06T05:49:10.851Z,2.17
2023-03-06T05:54:12.752Z,2.29
2023-03-06T05:59:15.661Z,2.29
2023-03-06T06:04:17.502Z,2.15
2023-03-06T06:09:19.349Z,1.38
2023-03-06T06:14:21.996Z,1.46
2023-03-06T06:19:23.961Z,0.70
2023-03-06T06:24:26.734Z,1.64
2023-03-06T06:29:28.953Z,2.15
2023-03-06T06:34:31.953Z,2.29
2023-03-06T06:39:33.818Z,2.23
2023-03-06T06:44:36.910Z,2.18
2023-03-06T06:49:39.574Z,1.87
2023-03-06T06:54:41.323Z,2.24
2023-03-06T06:59:43.284Z,1.88
2023-03-06T07:05:02.032Z,1.82
2023-03-06T07:10:07.411Z,1.92
2023-03-06T07:15:12.022Z,2.26
2023-03-06T07:20:13.797Z,2.72
2023-03-06T07:25:15.697Z,2.53
2023-03-06T07:30:17.487Z,3.20
2023-03-06T07:35:29.446Z,3.54
2023-03-06T07:40:31.188Z,3.47
2023-03-06T07:45:33.483Z,3.29
2023-03-06T07:50:35.310Z,2.94
2023-03-06T07:55:40.427Z,3.53
2023-03-06T08:00:42.361Z,3.81
2023-03-06T08:05:44.860Z,3.84
2023-03-06T08:10:49.850Z,3.57
2023-03-06T08:15:51.678Z,3.19
2023-03-06T08:21:02.698Z,3.33
2023-03-06T08:26:11.167Z,4.27
2023-03-06T08:31:28.872Z,4.98
2023-03-06T08:36:30.999Z,1.49
2023-03-06T08:41:33.584Z,-0.99
2023-03-06T08:46:36.215Z,-2.11
2023-03-06T08:51:38.007Z,-0.07
2023-03-06T08:56:39.869Z,-1.21
2023-03-06T09:01:41.788Z,-1.02
2023-03-06T09:06:44.161Z,0.83
2023-03-06T09:11:46.035Z,-0.70
2023-03-06T09:16:47.948Z,-2.74
2023-03-06T09:21:49.819Z,-1.12
2023-03-06T09:26:51.834Z,2.00
2023-03-06T09:31:53.915Z,1.72
2023-03-06T09:36:57.597Z,-2.29
2023-03-06T09:41:59.631Z,1.49
2023-03-06T09:47:22.704Z,3.26
2023-03-06T09:52:38.650Z,3.75
2023-03-06T09:57:52.237Z,0.73
2023-03-06T10:03:10.589Z,-0.94
2023-03-06T10:08:23.918Z,-1.62
2023-03-06T10:13:48.209Z,2.95
2023-03-06T10:18:51.050Z,0.31
2023-03-06T10:23:55.115Z,1.20
2023-03-06T10:28:59.679Z,-2.17
2023-03-06T10:34:16.037Z,-0.42
2023-03-06T10:39:21.023Z,-0.39
2023-03-06T10:44:24.471Z,-0.45
2023-03-06T10:49:37.840Z,2.90
2023-03-06T10:54:42.353Z,4.07
2023-03-06T10:59:58.181Z,-0.55
2023-03-06T11:05:01.645Z,-0.25
2023-03-06T11:10:19.866Z,1.64
2023-03-06T11:15:22.673Z,4.40
2023-03-06T11:20:52.043Z,1.76
2023-03-06T11:26:21.143Z,3.87
2023-03-06T11:31:28.836Z,2.22
2023-03-06T11:36:39.188Z,0.42
2023-03-06T11:41:54.171Z,3.16
2023-03-06T11:47:07.790Z,3.90
2023-03-06T11:52:40.319Z,3.70
2023-03-06T11:57:52.758Z,3.38
2023-03-06T12:03:16.633Z,1.50
2023-03-06T12:08:46.478Z,2.87
2023-03-06T12:13:56.779Z,6.07
2023-03-06T12:19:22.329Z,8.50
2023-03-06T12:24:55.313Z,9.78
2023-03-06T12:30:26.405Z,5.15
2023-03-06T12:35:42.531Z,0.74
2023-03-06T12:41:05.565Z,5.08
2023-03-06T12:46:22.532Z,3.85
2023-03-06T12:51:24.552Z,6.32
2023-03-06T12:56:28.377Z,4.18
2023-03-06T13:01:30.033Z,4.36
2023-03-06T13:06:44.946Z,1.00
2023-03-06T13:11:57.509Z,2.26
2023-03-06T13:17:24.066Z,4.54
2023-03-06T13:22:29.292Z,3.24
2023-03-06T13:27:53.375Z,2.85
2023-03-06T13:32:56.346Z,3.27
2023-03-06T13:37:59.572Z,2.95
2023-03-06T13:43:14.948Z,4.59
2023-03-06T13:48:44.855Z,4.83
2023-03-06T13:54:08.925Z,5.14
2023-03-06T13:59:35.751Z,5.09
2023-03-06T14:04:53.295Z,3.88
2023-03-06T14:10:18.491Z,4.53
2023-03-06T14:15:23.871Z,4.31
2023-03-06T14:20:35.324Z,4.52
2023-03-06T14:25:37.158Z,5.28
2023-03-06T14:30:49.346Z,4.76
2023-03-06T14:35:52.654Z,4.65
2023-03-06T14:40:55.633Z,5.12
2023-03-06T14:46:02.981Z,3.68
2023-03-06T14:51:05.836Z,6.09
2023-03-06T14:56:07.959Z,5.33
2023-03-06T15:01:13.114Z,6.21
2023-03-06T15:06:19.905Z,5.64
2023-03-06T15:11:21.674Z,5.97
2023-03-06T15:16:30.055Z,6.21
2023-03-06T15:21:38.026Z,7.12
2023-03-06T15:26:40.616Z,5.33
2023-03-06T15:31:44.603Z,4.37
2023-03-06T15:36:57.648Z,4.56
2023-03-06T15:42:15.548Z,5.08
2023-03-06T15:47:17.436Z,4.94
2023-03-06T15:52:23.523Z,5.73
2023-03-06T15:57:29.179Z,5.36
2023-03-06T16:02:31.129Z,4.34
2023-03-06T16:07:32.806Z,4.57
2023-03-06T16:12:34.529Z,6.44
2023-03-06T16:17:36.191Z,5.13
2023-03-06T16:22:37.908Z,4.98
2023-03-06T16:27:46.053Z,3.57
2023-03-06T16:32:47.931Z,4.58
2023-03-06T16:37:50.018Z,5.18
2023-03-06T16:42:54.013Z,7.06
2023-03-06T16:47:58.767Z,8.06
2023-03-06T16:53:01.255Z,6.23
2023-03-06T16:58:02.991Z,5.66
2023-03-06T17:03:04.785Z,5.30
2023-03-06T17:08:06.616Z,6.05
2023-03-06T17:13:08.721Z,7.45
2023-03-06T17:18:10.482Z,9.06
2023-03-06T17:23:12.294Z,5.18
2023-03-06T17:28:14.348Z,7.84
2023-03-06T17:33:16.054Z,7.52
2023-03-06T17:38:17.779Z,8.02
2023-03-06T17:43:20.214Z,7.52
2023-03-06T17:48:21.960Z,7.21
2023-03-06T17:53:23.973Z,5.99
2023-03-06T17:58:27.089Z,4.25
2023-03-06T18:03:28.954Z,6.03
2023-03-06T18:08:32.175Z,4.67
2023-03-06T18:13:36.589Z,5.35
2023-03-06T18:18:38.805Z,7.24
2023-03-06T18:23:41.245Z,7.14
2023-03-06T18:28:46.139Z,6.60
2023-03-06T18:33:49.104Z,6.01
2023-03-06T18:38:51.508Z,6.54
2023-03-06T18:43:58.414Z,5.41
2023-03-06T18:49:00.312Z,5.71
2023-03-06T18:54:03.975Z,6.25
2023-03-06T18:59:06.852Z,5.69
2023-03-06T19:04:08.826Z,6.52
2023-03-06T19:09:11.390Z,6.21
2023-03-06T19:14:16.298Z,6.62
2023-03-06T19:19:18.014Z,6.40
2023-03-06T19:24:19.773Z,6.70
2023-03-06T19:29:21.554Z,6.25
2023-03-06T19:34:23.452Z,5.45
2023-03-06T19:39:25.703Z,6.01
2023-03-06T19:44:27.606Z,6.11
2023-03-06T19:49:29.322Z,5.45
2023-03-06T19:54:32.625Z,5.59
2023-03-06T19:59:34.495Z,6.16
2023-03-06T20:04:36.660Z,5.29
2023-03-06T20:09:38.622Z,6.05
2023-03-06T20:14:41.008Z,5.35
2023-03-06T20:19:42.840Z,5.58
2023-03-06T20:24:45.175Z,4.14
2023-03-06T20:29:46.923Z,4.94
2023-03-06T20:34:48.796Z,4.26
2023-03-06T20:39:51.521Z,4.26
2023-03-06T20:44:53.303Z,4.61
2023-03-06T20:49:55.119Z,5.08
2023-03-06T20:54:57.107Z,4.69
2023-03-06T20:59:58.822Z,4.20
2023-03-06T21:05:00.841Z,4.86
2023-03-06T21:10:02.780Z,3.52
2023-03-06T21:15:05.176Z,3.26
2023-03-06T21:20:07.388Z,4.25
2023-03-06T21:25:09.137Z,2.42
2023-03-06T21:30:11.459Z,3.84
2023-03-06T21:35:13.945Z,4.63
2023-03-06T21:40:15.745Z,4.08
2023-03-06T21:45:17.603Z,4.14
2023-03-06T21:50:19.373Z,3.03
2023-03-06T21:55:21.106Z,1.63
2023-03-06T22:00:25.932Z,0.84
2023-03-06T22:05:27.770Z,2.23
2023-03-06T22:10:29.555Z,1.00
2023-03-06T22:15:31.422Z,2.53
2023-03-06T22:20:33.238Z,2.80
2023-03-06T22:25:35.239Z,3.16
2023-03-06T22:30:37.129Z,3.24
2023-03-06T22:35:38.930Z,3.79
2023-03-06T22:40:40.720Z,2.20
2023-03-06T22:45:42.583Z,3.01
2023-03-06T22:50:44.484Z,3.70
2023-03-06T22:55:46.278Z,3.82
2023-03-06T23:00:48.168Z,4.24
2023-03-06T23:05:50.059Z,2.79
2023-03-06T23:10:51.873Z,3.78
2023-03-06T23:16:12.516Z,3.06
2023-03-06T23:21:34.555Z,3.94
2023-03-06T23:26:55.020Z,3.21
2023-03-06T23:31:56.816Z,2.51
2023-03-06T23:36:58.680Z,2.84
2023-03-06T23:42:01.437Z,3.18
2023-03-06T23:47:03.182Z,4.00
2023-03-06T23:52:05.035Z,3.73
2023-03-06T23:57:06.878Z,3.00
